createdAt,value
2016-05-17T00:00:54.812Z,0
2016-05-17T00:01:54.831Z,0
2016-05-17T00:02:54.881Z,0
2016-05-17T00:03:54.789Z,0
2016-05-17T00:04:54.948Z,0
2016-05-17T00:05:54.997Z,0
2016-05-17T00:06:55.375Z,0
2016-05-17T00:07:55.050Z,0
2016-05-17T00:08:55.099Z,0
2016-05-17T00:09:55.118Z,0
2016-05-17T00:10:55.214Z,0
2016-05-17T00:11:55.061Z,0
2016-05-17T00:12:55.252Z,0
2016-05-17T00:13:55.285Z,0
2016-05-17T00:14:55.319Z,0
2016-05-17T00:15:55.180Z,0
2016-05-17T00:16:55.230Z,0
2016-05-17T00:17:55.468Z,0
2016-05-17T00:18:55.485Z,0
2016-05-17T00:19:55.489Z,0
2016-05-17T00:20:55.569Z,0
2016-05-17T00:21:55.947Z,0
2016-05-17T00:22:55.607Z,0
2016-05-17T00:23:55.656Z,0
2016-05-17T00:24:55.705Z,0
2016-05-17T00:25:55.723Z,0
2016-05-17T00:26:55.601Z,0
2016-05-17T00:27:55.823Z,0
2016-05-17T00:28:55.670Z,0
2016-05-17T00:29:55.875Z,0
2016-05-17T00:30:55.581Z,0
2016-05-17T00:31:55.973Z,0
2016-05-17T00:32:55.868Z,0
2016-05-17T00:33:56.026Z,0
2016-05-17T00:34:56.060Z,0
2016-05-17T00:35:56.094Z,0
2016-05-17T00:36:56.066Z,0
2016-05-17T00:37:56.162Z,0
2016-05-17T00:38:56.197Z,0
2016-05-17T00:39:56.120Z,0
2016-05-17T00:40:56.108Z,0
2016-05-17T00:41:56.313Z,0
2016-05-17T00:42:56.394Z,0
2016-05-17T00:43:56.413Z,0
2016-05-17T00:44:56.119Z,0
2016-05-17T00:45:56.450Z,0
2016-05-17T00:46:56.389Z,0
2016-05-17T00:47:56.439Z,0
2016-05-17T00:48:56.427Z,0
2016-05-17T00:49:56.491Z,0
2016-05-17T00:50:56.649Z,0
2016-05-17T00:51:57.590Z,0
2016-05-17T00:52:56.718Z,0
2016-05-17T00:53:56.596Z,0
2016-05-17T00:54:56.817Z,0
2016-05-17T00:55:56.679Z,0
2016-05-17T00:56:56.854Z,0
2016-05-17T00:57:56.887Z,0
2016-05-17T00:58:56.921Z,0
2016-05-17T00:59:56.815Z,0
2016-05-17T01:00:57.037Z,0
2016-05-17T01:01:57.087Z,0
2016-05-17T01:02:57.089Z,0
2016-05-17T01:03:56.951Z,0
2016-05-17T01:04:57.156Z,0
2016-05-17T01:05:57.034Z,0
2016-05-17T01:06:57.239Z,0
2016-05-17T01:07:57.103Z,0
2016-05-17T01:08:57.183Z,0
2016-05-17T01:09:57.326Z,0
2016-05-17T01:10:57.220Z,0
2016-05-17T01:11:57.441Z,0
2016-05-17T01:12:57.475Z,0
2016-05-17T01:13:57.478Z,0
2016-05-17T01:14:57.355Z,0
2016-05-17T01:15:57.577Z,0
2016-05-17T01:16:57.611Z,0
2016-05-17T01:17:57.630Z,0
2016-05-17T01:18:57.679Z,0
2016-05-17T01:19:57.713Z,0
2016-05-17T01:20:57.622Z,0
2016-05-17T01:21:57.780Z,0
2016-05-17T01:22:57.830Z,0
2016-05-17T01:23:57.848Z,0
2016-05-17T01:24:57.866Z,0
2016-05-17T01:25:57.760Z,0
2016-05-17T01:26:57.810Z,0
2016-05-17T01:27:57.999Z,0
2016-05-17T01:28:58.018Z,0
2016-05-17T01:29:58.051Z,0
2016-05-17T01:30:58.117Z,0
2016-05-17T01:31:57.964Z,0
2016-05-17T01:32:58.122Z,0
2016-05-17T01:33:58.298Z,0
2016-05-17T01:34:58.253Z,0
2016-05-17T01:35:58.146Z,0
2016-05-17T01:36:58.821Z,0
2016-05-17T01:37:58.401Z,0
2016-05-17T01:38:58.404Z,0
2016-05-17T01:39:58.297Z,0
2016-05-17T01:40:58.300Z,0
2016-05-17T01:41:58.334Z,0
2016-05-17T01:42:58.572Z,0
2016-05-17T01:43:58.402Z,0
2016-05-17T01:44:58.436Z,0
2016-05-17T01:45:58.751Z,0
2016-05-17T01:46:58.550Z,0
2016-05-17T01:47:58.694Z,0
2016-05-17T01:48:58.587Z,0
2016-05-17T01:49:58.669Z,0
2016-05-17T01:50:58.671Z,0
2016-05-17T01:51:58.721Z,0
2016-05-17T01:52:58.989Z,0
2016-05-17T01:53:58.944Z,0
2016-05-17T01:54:58.979Z,0
2016-05-17T01:55:59.012Z,0
2016-05-17T01:56:59.077Z,0
2016-05-17T01:57:59.080Z,0
2016-05-17T01:58:58.958Z,0
2016-05-17T01:59:59.132Z,0
2016-05-17T02:00:59.260Z,0
2016-05-17T02:01:59.232Z,0
2016-05-17T02:02:59.265Z,0
2016-05-17T02:03:59.300Z,0
2016-05-17T02:04:59.348Z,0
2016-05-17T02:05:59.368Z,0
2016-05-17T02:06:59.183Z,0
2016-05-17T02:07:59.498Z,0
2016-05-17T02:08:59.392Z,0
2016-05-17T02:09:59.519Z,0
2016-05-17T02:10:59.537Z,0
2016-05-17T02:11:59.290Z,0
2016-05-17T02:12:59.620Z,0
2016-05-17T02:13:59.655Z,0
2016-05-17T02:14:59.705Z,0
2016-05-17T02:15:59.785Z,0
2016-05-17T02:16:59.756Z,0
2016-05-17T02:17:59.806Z,0
2016-05-17T02:18:59.871Z,0
2016-05-17T02:19:59.625Z,0
2016-05-17T02:20:59.907Z,0
2016-05-17T02:22:00.066Z,0
2016-05-17T02:22:59.976Z,0
2016-05-17T02:24:00.025Z,0
2016-05-17T02:25:00.044Z,0
2016-05-17T02:26:00.093Z,0
2016-05-17T02:27:00.127Z,0
2016-05-17T02:28:00.161Z,0
2016-05-17T02:29:00.195Z,0
2016-05-17T02:30:00.260Z,0
2016-05-17T02:31:00.326Z,0
2016-05-17T02:32:00.172Z,0
2016-05-17T02:33:00.190Z,0
2016-05-17T02:33:59.912Z,0
2016-05-17T02:35:00.492Z,0
2016-05-17T02:36:00.464Z,0
2016-05-17T02:37:00.513Z,0
2016-05-17T02:38:00.767Z,0
2016-05-17T02:39:00.409Z,0
2016-05-17T02:40:00.678Z,0
2016-05-17T02:41:00.525Z,4
2016-05-17T02:42:00.230Z,0
2016-05-17T02:43:00.717Z,4
2016-05-17T02:44:00.578Z,4
2016-05-17T02:45:00.863Z,4
2016-05-17T02:46:00.819Z,4
2016-05-17T02:47:00.853Z,4
2016-05-17T02:48:00.903Z,8
2016-05-17T02:49:00.796Z,8
2016-05-17T02:50:00.954Z,12
2016-05-17T02:51:01.019Z,12
2016-05-17T02:52:00.961Z,12
2016-05-17T02:53:01.072Z,16
2016-05-17T02:54:00.981Z,16
2016-05-17T02:55:01.155Z,20
2016-05-17T02:56:01.221Z,20
2016-05-17T02:57:01.224Z,20
2016-05-17T02:58:01.101Z,20
2016-05-17T02:59:01.182Z,24
2016-05-17T03:00:01.341Z,24
2016-05-17T03:01:01.375Z,32
2016-05-17T03:02:01.424Z,32
2016-05-17T03:03:01.443Z,40
2016-05-17T03:04:01.320Z,44
2016-05-17T03:05:01.510Z,48
2016-05-17T03:06:01.545Z,52
2016-05-17T03:07:01.765Z,56
2016-05-17T03:08:01.518Z,64
2016-05-17T03:09:01.381Z,68
2016-05-17T03:10:01.539Z,72
2016-05-17T03:11:01.605Z,76
2016-05-17T03:12:01.779Z,80
2016-05-17T03:13:01.798Z,80
2016-05-17T03:14:01.831Z,84
2016-05-17T03:15:01.928Z,92
2016-05-17T03:16:01.743Z,100
2016-05-17T03:17:01.793Z,104
2016-05-17T03:18:01.999Z,108
2016-05-17T03:19:02.033Z,112
2016-05-17T03:20:02.051Z,112
2016-05-17T03:21:01.960Z,116
2016-05-17T03:22:02.165Z,116
2016-05-17T03:23:02.152Z,124
2016-05-17T03:24:02.030Z,132
2016-05-17T03:25:02.221Z,144
2016-05-17T03:26:02.301Z,160
2016-05-17T03:27:02.335Z,184
2016-05-17T03:28:02.244Z,196
2016-05-17T03:29:02.450Z,204
2016-05-17T03:30:02.515Z,224
2016-05-17T03:31:02.143Z,252
2016-05-17T03:32:02.317Z,288
2016-05-17T03:33:02.368Z,340
2016-05-17T03:34:02.543Z,380
2016-05-17T03:35:02.451Z,400
2016-05-17T03:36:02.626Z,412
2016-05-17T03:37:03.456Z,428
2016-05-17T03:38:02.693Z,452
2016-05-17T03:39:02.742Z,480
2016-05-17T03:40:02.668Z,508
2016-05-17T03:41:02.826Z,532
2016-05-17T03:42:02.829Z,560
2016-05-17T03:43:02.753Z,588
2016-05-17T03:44:02.912Z,620
2016-05-17T03:45:02.947Z,652
2016-05-17T03:46:03.011Z,688
2016-05-17T03:47:03.014Z,724
2016-05-17T03:48:03.047Z,760
2016-05-17T03:49:02.942Z,792
2016-05-17T03:50:02.975Z,820
2016-05-17T03:51:03.008Z,836
2016-05-17T03:52:03.419Z,848
2016-05-17T03:53:03.233Z,856
2016-05-17T03:54:03.283Z,872
2016-05-17T03:55:03.301Z,888
2016-05-17T03:56:03.351Z,904
2016-05-17T03:57:03.369Z,928
2016-05-17T03:58:03.450Z,948
2016-05-17T03:59:03.468Z,976
2016-05-17T04:00:03.471Z,1012
2016-05-17T04:01:03.521Z,1048
2016-05-17T04:02:03.617Z,1068
2016-05-17T04:03:03.604Z,1088
2016-05-17T04:04:03.622Z,1100
2016-05-17T04:05:03.688Z,1112
2016-05-17T04:06:03.722Z,1136
2016-05-17T04:07:03.802Z,1184
2016-05-17T04:08:03.618Z,1248
2016-05-17T04:09:03.854Z,1308
2016-05-17T04:10:03.857Z,1396
2016-05-17T04:11:03.891Z,1480
2016-05-17T04:12:03.940Z,1576
2016-05-17T04:13:03.943Z,1668
2016-05-17T04:14:03.978Z,1772
2016-05-17T04:15:04.027Z,1880
2016-05-17T04:16:03.905Z,1988
2016-05-17T04:17:03.986Z,2096
2016-05-17T04:18:04.128Z,2168
2016-05-17T04:19:04.178Z,2224
2016-05-17T04:20:04.086Z,2244
2016-05-17T04:21:04.231Z,2256
2016-05-17T04:22:04.453Z,2224
2016-05-17T04:23:04.330Z,2268
2016-05-17T04:24:04.411Z,2280
2016-05-17T04:25:04.382Z,2400
2016-05-17T04:26:04.416Z,2556
2016-05-17T04:27:04.465Z,2700
2016-05-17T04:28:04.483Z,2832
2016-05-17T04:29:04.252Z,2928
2016-05-17T04:30:04.583Z,3008
2016-05-17T04:31:04.476Z,3052
2016-05-17T04:32:04.635Z,3088
2016-05-17T04:33:04.669Z,3136
2016-05-17T04:34:04.734Z,3212
2016-05-17T04:35:04.768Z,3312
2016-05-17T04:36:04.770Z,3496
2016-05-17T04:37:04.680Z,3660
2016-05-17T04:38:04.886Z,3752
2016-05-17T04:39:04.607Z,3760
2016-05-17T04:40:04.766Z,3660
2016-05-17T04:41:04.987Z,3468
2016-05-17T04:42:04.912Z,3240
2016-05-17T04:43:05.039Z,2920
2016-05-17T04:44:04.917Z,2604
2016-05-17T04:45:05.123Z,2408
2016-05-17T04:46:05.142Z,2404
2016-05-17T04:47:04.879Z,2488
2016-05-17T04:48:05.225Z,2616
2016-05-17T04:49:05.134Z,2744
2016-05-17T04:50:05.167Z,2788
2016-05-17T04:51:05.327Z,2888
2016-05-17T04:52:05.610Z,3212
2016-05-17T04:53:05.442Z,3368
2016-05-17T04:54:05.304Z,3296
2016-05-17T04:55:05.306Z,3088
2016-05-17T04:56:05.559Z,3236
2016-05-17T04:57:05.593Z,3164
2016-05-17T04:58:05.580Z,2744
2016-05-17T04:59:05.614Z,2500
2016-05-17T05:00:05.569Z,2468
2016-05-17T05:01:05.557Z,2456
2016-05-17T05:02:05.716Z,2360
2016-05-17T05:03:07.407Z,2100
2016-05-17T05:04:05.862Z,1688
2016-05-17T05:05:05.677Z,1400
2016-05-17T05:06:05.867Z,1288
2016-05-17T05:07:06.104Z,1168
2016-05-17T05:08:05.809Z,1024
2016-05-17T05:09:05.968Z,880
2016-05-17T05:10:06.040Z,804
2016-05-17T05:11:06.132Z,816
2016-05-17T05:12:06.209Z,888
2016-05-17T05:13:06.129Z,1032
2016-05-17T05:14:06.379Z,1252
2016-05-17T05:15:06.301Z,1420
2016-05-17T05:16:06.194Z,1356
2016-05-17T05:17:06.479Z,1076
2016-05-17T05:18:06.636Z,1068
2016-05-17T05:19:06.671Z,1168
2016-05-17T05:20:06.387Z,1136
2016-05-17T05:21:06.708Z,1104
2016-05-17T05:22:06.466Z,1192
2016-05-17T05:23:06.833Z,1288
2016-05-17T05:24:06.856Z,1340
2016-05-17T05:25:06.910Z,1300
2016-05-17T05:26:06.930Z,1292
2016-05-17T05:27:06.966Z,1348
2016-05-17T05:28:07.002Z,1424
2016-05-17T05:29:07.054Z,1516
2016-05-17T05:30:07.089Z,1648
2016-05-17T05:31:07.107Z,1844
2016-05-17T05:32:07.032Z,2180
2016-05-17T05:33:07.239Z,2476
2016-05-17T05:34:07.134Z,2660
2016-05-17T05:35:07.120Z,2708
2016-05-17T05:36:06.984Z,2640
2016-05-17T05:37:07.502Z,2592
2016-05-17T05:38:08.865Z,2704
2016-05-17T05:39:07.930Z,2700
2016-05-17T05:40:07.480Z,2696
2016-05-17T05:41:07.670Z,2968
2016-05-17T05:42:07.516Z,3084
2016-05-17T05:43:07.629Z,3044
2016-05-17T05:44:07.835Z,2860
2016-05-17T05:45:07.806Z,2724
2016-05-17T05:46:07.512Z,2728
2016-05-17T05:47:08.296Z,2792
2016-05-17T05:48:07.939Z,2860
2016-05-17T05:49:07.833Z,2948
2016-05-17T05:50:07.881Z,3044
2016-05-17T05:51:11.259Z,3196
2016-05-17T05:52:07.715Z,3364
2016-05-17T05:53:07.968Z,3560
2016-05-17T05:54:07.784Z,3748
2016-05-17T05:55:07.834Z,3952
2016-05-17T05:56:08.070Z,4068
2016-05-17T05:57:08.073Z,4184
2016-05-17T05:58:08.232Z,4360
2016-05-17T05:59:08.125Z,4492
2016-05-17T06:00:10.003Z,4716
2016-05-17T06:01:08.287Z,4896
2016-05-17T06:02:08.242Z,5076
2016-05-17T06:03:08.542Z,5016
2016-05-17T06:04:08.608Z,4740
2016-05-17T06:05:08.297Z,4620
2016-05-17T06:06:08.394Z,4664
2016-05-17T06:07:08.912Z,4620
2016-05-17T06:08:08.883Z,4288
2016-05-17T06:09:08.371Z,3988
2016-05-17T06:10:09.467Z,3764
2016-05-17T06:11:08.688Z,3904
2016-05-17T06:12:08.738Z,3596
2016-05-17T06:13:08.787Z,3176
2016-05-17T06:14:12.024Z,2968
2016-05-17T06:16:18.423Z,3672
2016-05-17T06:16:42.220Z,3840
2016-05-17T06:17:37.348Z,3596
2016-05-17T06:18:36.804Z,3224
2016-05-17T06:19:36.728Z,3200
2016-05-17T06:20:37.513Z,2932
2016-05-17T06:21:37.171Z,2432
2016-05-17T06:22:37.126Z,2056
2016-05-17T06:23:37.254Z,2020
2016-05-17T06:24:36.929Z,2208
2016-05-17T06:25:36.901Z,2508
2016-05-17T06:26:36.842Z,3272
2016-05-17T06:27:37.251Z,4420
2016-05-17T06:28:38.877Z,5280
2016-05-17T06:29:40.131Z,5520
2016-05-17T06:30:40.961Z,5420
2016-05-17T06:31:41.651Z,5472
2016-05-17T06:32:41.326Z,5256
2016-05-17T06:33:42.970Z,5100
2016-05-17T06:34:42.363Z,5180
2016-05-17T06:35:41.756Z,5536
2016-05-17T06:36:45.962Z,5804
2016-05-17T06:37:45.074Z,6496
2016-05-17T06:38:42.311Z,7056
2016-05-17T06:39:42.547Z,7652
2016-05-17T06:40:42.379Z,8340
2016-05-17T06:41:45.585Z,9128
2016-05-17T06:42:42.994Z,9552
2016-05-17T06:43:41.480Z,9012
2016-05-17T06:44:41.827Z,8312
2016-05-17T06:45:40.158Z,8580
2016-05-17T06:46:40.988Z,8564
2016-05-17T06:47:41.054Z,7692
2016-05-17T06:48:39.790Z,7352
2016-05-17T06:49:40.074Z,7404
2016-05-17T06:50:39.327Z,7568
2016-05-17T06:51:40.659Z,7412
2016-05-17T06:52:39.957Z,6900
2016-05-17T06:53:39.867Z,6532
2016-05-17T06:54:39.776Z,5836
2016-05-17T06:55:38.044Z,5388
2016-05-17T06:56:39.172Z,5208
2016-05-17T06:57:38.095Z,4848
2016-05-17T06:58:38.693Z,4660
2016-05-17T06:59:38.711Z,4324
2016-05-17T07:00:40.761Z,4744
2016-05-17T07:01:39.685Z,4612
2016-05-17T07:02:39.391Z,4788
2016-05-17T07:03:38.534Z,4708
2016-05-17T07:04:38.614Z,4932
2016-05-17T07:05:39.524Z,5516
2016-05-17T07:06:40.199Z,5796
2016-05-17T07:07:39.936Z,5764
2016-05-17T07:08:38.391Z,6128
2016-05-17T07:09:38.566Z,6912
2016-05-17T07:10:39.209Z,7888
2016-05-17T07:11:38.712Z,10280
2016-05-17T07:12:38.840Z,11012
2016-05-17T07:13:39.374Z,11124
2016-05-17T07:14:44.095Z,11748
2016-05-17T07:15:39.754Z,13444
2016-05-17T07:16:40.288Z,12140
2016-05-17T07:17:39.010Z,9412
2016-05-17T07:18:41.215Z,10412
2016-05-17T07:19:40.530Z,11628
2016-05-17T07:20:39.032Z,10720
2016-05-17T07:21:38.785Z,9260
2016-05-17T07:22:39.242Z,7812
2016-05-17T07:23:39.134Z,8404
2016-05-17T07:24:39.216Z,7412
2016-05-17T07:25:39.046Z,5336
2016-05-17T07:26:39.268Z,3444
2016-05-17T07:27:39.287Z,2648
2016-05-17T07:28:40.320Z,3340
2016-05-17T07:29:39.729Z,3888
2016-05-17T07:30:39.747Z,3396
2016-05-17T07:31:40.016Z,2728
2016-05-17T07:32:39.612Z,2120
2016-05-17T07:33:40.318Z,1712
2016-05-17T07:34:41.742Z,1372
2016-05-17T07:35:41.620Z,1168
2016-05-17T07:36:41.264Z,1484
2016-05-17T07:37:41.625Z,2020
2016-05-17T07:38:43.144Z,2596
2016-05-17T07:39:40.944Z,3212
2016-05-17T07:40:43.493Z,3784
2016-05-17T07:41:45.433Z,4356
2016-05-17T07:42:42.546Z,5576
2016-05-17T07:43:42.219Z,6272
2016-05-17T07:44:42.347Z,6656
2016-05-17T07:45:41.428Z,6916
2016-05-17T07:46:41.775Z,6984
2016-05-17T07:47:44.981Z,6656
2016-05-17T07:48:42.171Z,6188
2016-05-17T07:49:42.955Z,5848
2016-05-17T07:50:44.098Z,5716
2016-05-17T07:51:43.023Z,5788
2016-05-17T07:52:41.635Z,5936
2016-05-17T07:53:42.668Z,6184
2016-05-17T07:54:42.703Z,6384
2016-05-17T07:55:42.580Z,6496
2016-05-17T07:56:42.693Z,6404
2016-05-17T07:57:41.289Z,6248
2016-05-17T07:58:42.010Z,6336
2016-05-17T07:59:42.498Z,6496
2016-05-17T08:00:43.640Z,6592
2016-05-17T08:01:42.753Z,6740
2016-05-17T08:02:44.240Z,7040
2016-05-17T08:03:42.461Z,7220
2016-05-17T08:04:42.605Z,6888
2016-05-17T08:05:42.232Z,7736
2016-05-17T08:06:43.361Z,8960
2016-05-17T08:07:43.488Z,9996
2016-05-17T08:08:44.240Z,10816
2016-05-17T08:09:41.759Z,11660
2016-05-17T08:10:42.996Z,12400
2016-05-17T08:11:44.686Z,12852
2016-05-17T08:12:43.486Z,13068
2016-05-17T08:13:45.004Z,13372
2016-05-17T08:14:44.444Z,14044
2016-05-17T08:15:44.509Z,14884
2016-05-17T08:16:43.480Z,15608
2016-05-17T08:17:44.061Z,16252
2016-05-17T08:18:43.485Z,16800
2016-05-17T08:19:43.613Z,17184
2016-05-17T08:20:43.819Z,17792
2016-05-17T08:21:45.728Z,18656
2016-05-17T08:22:44.263Z,18912
2016-05-17T08:23:42.343Z,18432
2016-05-17T08:24:45.690Z,17888
2016-05-17T08:25:43.832Z,17344
2016-05-17T08:26:43.914Z,14920
2016-05-17T08:27:42.401Z,11112
2016-05-17T08:28:42.419Z,8844
2016-05-17T08:29:43.828Z,7620
2016-05-17T08:30:43.706Z,7252
2016-05-17T08:31:46.881Z,6888
2016-05-17T08:32:43.898Z,6428
2016-05-17T08:33:41.823Z,6040
2016-05-17T08:34:43.857Z,6096
2016-05-17T08:35:41.892Z,6732
2016-05-17T08:36:42.894Z,7136
2016-05-17T08:37:45.194Z,7952
2016-05-17T08:38:46.212Z,8512
2016-05-17T08:39:44.011Z,8660
2016-05-17T08:40:42.561Z,8988
2016-05-17T08:41:43.580Z,9020
2016-05-17T08:42:42.707Z,8252
2016-05-17T08:43:42.163Z,7388
2016-05-17T08:44:42.243Z,6972
2016-05-17T08:45:44.121Z,7020
2016-05-17T08:46:43.264Z,7684
2016-05-17T08:47:44.377Z,8876
2016-05-17T08:48:45.551Z,10416
2016-05-17T08:49:49.554Z,11828
2016-05-17T08:50:44.165Z,12816
2016-05-17T08:51:45.621Z,13568
2016-05-17T08:52:44.905Z,14508
2016-05-17T08:53:44.940Z,16480
2016-05-17T08:54:42.896Z,17952
2016-05-17T08:55:45.398Z,18784
2016-05-17T08:56:47.057Z,19360
2016-05-17T08:57:46.482Z,20512
2016-05-17T08:58:44.703Z,21984
2016-05-17T08:59:45.253Z,22912
2016-05-17T09:00:44.693Z,23680
2016-05-17T09:01:45.539Z,24000
2016-05-17T09:02:42.807Z,23264
2016-05-17T09:03:44.919Z,22144
2016-05-17T09:04:42.812Z,21568
2016-05-17T09:05:45.128Z,21984
2016-05-17T09:06:45.817Z,22208
2016-05-17T09:07:45.477Z,22240
2016-05-17T09:08:44.964Z,22432
2016-05-17T09:09:44.123Z,21952
2016-05-17T09:10:45.736Z,21856
2016-05-17T09:11:45.300Z,22592
2016-05-17T09:12:44.850Z,23008
2016-05-17T09:13:43.836Z,23296
2016-05-17T09:14:43.497Z,23776
2016-05-17T09:15:43.546Z,24032
2016-05-17T09:16:48.158Z,24128
2016-05-17T09:17:44.051Z,24512
2016-05-17T09:18:48.085Z,25280
2016-05-17T09:19:43.446Z,27200
2016-05-17T09:20:43.637Z,27200
2016-05-17T09:21:44.858Z,28352
2016-05-17T09:22:44.111Z,28416
2016-05-17T09:23:43.599Z,28832
2016-05-17T09:24:43.788Z,29696
2016-05-17T09:25:43.682Z,30336
2016-05-17T09:26:43.951Z,29632
2016-05-17T09:27:43.921Z,28288
2016-05-17T09:28:44.987Z,26048
2016-05-17T09:29:44.021Z,22208
2016-05-17T09:30:44.039Z,19936
2016-05-17T09:31:44.995Z,19232
2016-05-17T09:32:44.685Z,17824
2016-05-17T09:33:44.095Z,18688
2016-05-17T09:34:50.800Z,17280
2016-05-17T09:35:44.084Z,15112
2016-05-17T09:36:44.774Z,14896
2016-05-17T09:37:45.761Z,16480
2016-05-17T09:38:47.326Z,16896
2016-05-17T09:39:52.314Z,15868
2016-05-17T09:40:51.784Z,15184
2016-05-17T09:41:51.991Z,15300
2016-05-17T09:42:55.853Z,15004
2016-05-17T09:43:54.386Z,14408
2016-05-17T09:44:50.608Z,12936
2016-05-17T09:45:47.797Z,11448
2016-05-17T09:46:50.504Z,10600
2016-05-17T09:47:47.819Z,11800
2016-05-17T09:48:47.649Z,12924
2016-05-17T09:49:46.527Z,13652
2016-05-17T09:50:45.296Z,14940
2016-05-17T09:51:44.939Z,17024
2016-05-17T09:52:44.833Z,20192
2016-05-17T09:53:46.305Z,23136
2016-05-17T09:54:45.196Z,24736
2016-05-17T09:55:45.122Z,24384
2016-05-17T09:56:45.688Z,23680
2016-05-17T09:57:44.955Z,23008
2016-05-17T09:58:47.630Z,20864
2016-05-17T09:59:45.101Z,18816
2016-05-17T10:00:45.401Z,18080
2016-05-17T10:01:45.216Z,16992
2016-05-17T10:02:45.593Z,15940
2016-05-17T10:03:45.643Z,15644
2016-05-17T10:04:47.896Z,15396
2016-05-17T10:05:45.601Z,14512
2016-05-17T10:06:47.151Z,14628
2016-05-17T10:07:46.404Z,14532
2016-05-17T10:08:46.126Z,13940
2016-05-17T10:09:47.175Z,13540
2016-05-17T10:10:46.553Z,13076
2016-05-17T10:11:45.883Z,12660
2016-05-17T10:12:46.012Z,13952
2016-05-17T10:13:45.811Z,14484
2016-05-17T10:14:46.720Z,15644
2016-05-17T10:15:47.676Z,18976
2016-05-17T10:16:46.131Z,23104
2016-05-17T10:17:47.353Z,25376
2016-05-17T10:18:46.184Z,24192
2016-05-17T10:19:46.014Z,20608
2016-05-17T10:20:46.283Z,17760
2016-05-17T10:21:46.255Z,16960
2016-05-17T10:22:46.585Z,17536
2016-05-17T10:23:46.057Z,18592
2016-05-17T10:24:47.418Z,19296
2016-05-17T10:25:46.344Z,17024
2016-05-17T10:26:46.502Z,14880
2016-05-17T10:27:46.270Z,17728
2016-05-17T10:28:46.430Z,21728
2016-05-17T10:29:47.604Z,23552
2016-05-17T10:30:46.497Z,20096
2016-05-17T10:31:46.469Z,16640
2016-05-17T10:32:46.409Z,11828
2016-05-17T10:33:46.631Z,8848
2016-05-17T10:34:46.649Z,8268
2016-05-17T10:35:46.964Z,9364
2016-05-17T10:36:46.669Z,11804
2016-05-17T10:37:46.829Z,15940
2016-05-17T10:38:46.878Z,20288
2016-05-17T10:39:47.740Z,23360
2016-05-17T10:40:46.962Z,25984
2016-05-17T10:41:46.981Z,27104
2016-05-17T10:42:46.717Z,29920
2016-05-17T10:43:46.861Z,27232
2016-05-17T10:44:47.239Z,37792
2016-05-17T10:45:47.225Z,29408
2016-05-17T10:46:47.119Z,31168
2016-05-17T10:47:47.028Z,29248
2016-05-17T10:48:47.233Z,42432
2016-05-17T10:49:47.533Z,43712
2016-05-17T10:50:48.083Z,47008
2016-05-17T10:51:47.617Z,44800
2016-05-17T10:52:47.510Z,31232
2016-05-17T10:53:48.013Z,33184
2016-05-17T10:54:47.374Z,38880
2016-05-17T10:55:47.361Z,40320
2016-05-17T10:56:47.427Z,74272
2016-05-17T10:57:47.663Z,97984
2016-05-17T10:58:47.541Z,45632
2016-05-17T10:59:47.560Z,75040
2016-05-17T11:00:47.750Z,123552
2016-05-17T11:01:47.846Z,111232
2016-05-17T11:02:47.959Z,120480
2016-05-17T11:03:47.961Z,109728
2016-05-17T11:04:47.995Z,104448
2016-05-17T11:05:47.998Z,106816
2016-05-17T11:06:48.312Z,30144
2016-05-17T11:07:48.050Z,32256
2016-05-17T11:08:48.412Z,35904
2016-05-17T11:09:48.056Z,19968
2016-05-17T11:10:48.183Z,19488
2016-05-17T11:11:48.092Z,18080
2016-05-17T11:12:48.438Z,14656
2016-05-17T11:13:49.659Z,14952
2016-05-17T11:14:48.209Z,15772
2016-05-17T11:15:49.133Z,14128
2016-05-17T11:16:48.308Z,12220
2016-05-17T11:17:48.514Z,11592
2016-05-17T11:18:49.689Z,11624
2016-05-17T11:19:48.645Z,10900
2016-05-17T11:20:48.648Z,10588
2016-05-17T11:21:49.680Z,11800
2016-05-17T11:22:48.574Z,13368
2016-05-17T11:23:49.234Z,14068
2016-05-17T11:24:49.268Z,13428
2016-05-17T11:25:48.771Z,13068
2016-05-17T11:26:48.977Z,13384
2016-05-17T11:27:49.135Z,13784
2016-05-17T11:28:48.997Z,14268
2016-05-17T11:29:49.031Z,14148
2016-05-17T11:30:49.065Z,13160
2016-05-17T11:31:49.083Z,13588
2016-05-17T11:32:49.133Z,14036
2016-05-17T11:33:49.182Z,14940
2016-05-17T11:34:49.060Z,16064
2016-05-17T11:35:49.141Z,16512
2016-05-17T11:36:49.534Z,16608
2016-05-17T11:37:49.286Z,16928
2016-05-17T11:38:49.524Z,16204
2016-05-17T11:39:49.464Z,15724
2016-05-17T11:40:51.529Z,15232
2016-05-17T11:41:49.376Z,14648
2016-05-17T11:42:49.675Z,13608
2016-05-17T11:43:49.631Z,13212
2016-05-17T11:44:49.680Z,12988
2016-05-17T11:45:49.699Z,13660
2016-05-17T11:46:49.967Z,15836
2016-05-17T11:47:49.798Z,19104
2016-05-17T11:48:49.832Z,22432
2016-05-17T11:49:49.991Z,24384
2016-05-17T11:50:50.384Z,26848
2016-05-17T11:51:50.480Z,26016
2016-05-17T11:52:49.983Z,25920
2016-05-17T11:53:49.846Z,25344
2016-05-17T11:54:50.051Z,22848
2016-05-17T11:55:50.116Z,18016
2016-05-17T11:56:50.119Z,15828
2016-05-17T11:57:52.074Z,14724
2016-05-17T11:58:49.891Z,13440
2016-05-17T11:59:50.378Z,12316
2016-05-17T12:00:50.379Z,11552
2016-05-17T12:01:50.023Z,11192
2016-05-17T12:02:50.370Z,11260
2016-05-17T12:03:50.466Z,11032
2016-05-17T12:04:50.453Z,11060
2016-05-17T12:05:50.597Z,10416
2016-05-17T12:06:49.849Z,9328
2016-05-17T12:07:50.617Z,9764
2016-05-17T12:08:50.682Z,11104
2016-05-17T12:09:50.514Z,12188
2016-05-17T12:10:50.828Z,13348
2016-05-17T12:11:51.144Z,14856
2016-05-17T12:12:50.990Z,16016
2016-05-17T12:13:50.900Z,15936
2016-05-17T12:14:50.823Z,14604
2016-05-17T12:15:50.905Z,12904
2016-05-17T12:16:50.970Z,11724
2016-05-17T12:17:51.050Z,10932
2016-05-17T12:18:51.069Z,10368
2016-05-17T12:19:51.072Z,10672
2016-05-17T12:20:50.997Z,10616
2016-05-17T12:21:51.858Z,9688
2016-05-17T12:22:52.377Z,9060
2016-05-17T12:23:51.222Z,9084
2016-05-17T12:24:51.132Z,9516
2016-05-17T12:25:51.932Z,9840
2016-05-17T12:26:51.356Z,9300
2016-05-17T12:27:51.421Z,8272
2016-05-17T12:28:51.424Z,7520
2016-05-17T12:29:51.521Z,7140
2016-05-17T12:30:51.524Z,6848
2016-05-17T12:31:51.588Z,6780
2016-05-17T12:32:51.685Z,6600
2016-05-17T12:33:51.485Z,6284
2016-05-17T12:34:51.784Z,5880
2016-05-17T12:35:51.740Z,5956
2016-05-17T12:36:52.054Z,6392
2016-05-17T12:37:51.792Z,6356
2016-05-17T12:38:51.920Z,6280
2016-05-17T12:39:52.032Z,6244
2016-05-17T12:40:52.003Z,6140
2016-05-17T12:41:51.959Z,6368
2016-05-17T12:42:52.384Z,5936
2016-05-17T12:43:51.902Z,5156
2016-05-17T12:44:51.998Z,5608
2016-05-17T12:45:52.189Z,6096
2016-05-17T12:46:52.192Z,6512
2016-05-17T12:47:52.272Z,6416
2016-05-17T12:48:53.993Z,6144
2016-05-17T12:49:52.292Z,6060
2016-05-17T12:50:54.124Z,6212
2016-05-17T12:51:52.861Z,6620
2016-05-17T12:52:52.300Z,7072
2016-05-17T12:53:52.288Z,7392
2016-05-17T12:54:52.400Z,7488
2016-05-17T12:55:52.434Z,7088
2016-05-17T12:56:53.000Z,7116
2016-05-17T12:57:52.549Z,7256
2016-05-17T12:58:52.582Z,7076
2016-05-17T12:59:52.351Z,6904
2016-05-17T13:00:52.760Z,6156
2016-05-17T13:01:52.763Z,5648
2016-05-17T13:02:52.688Z,5448
2016-05-17T13:03:52.877Z,5208
2016-05-17T13:04:52.958Z,5020
2016-05-17T13:05:52.961Z,4732
2016-05-17T13:06:53.010Z,4136
2016-05-17T13:07:52.998Z,3468
2016-05-17T13:08:53.015Z,3784
2016-05-17T13:09:53.065Z,3968
2016-05-17T13:10:53.006Z,4020
2016-05-17T13:11:53.149Z,3840
2016-05-17T13:12:53.167Z,4004
2016-05-17T13:13:53.201Z,4604
2016-05-17T13:14:53.329Z,5520
2016-05-17T13:15:53.301Z,6156
2016-05-17T13:16:53.335Z,6592
2016-05-17T13:17:53.447Z,6920
2016-05-17T13:18:53.417Z,7216
2016-05-17T13:19:53.467Z,7632
2016-05-17T13:20:53.548Z,8156
2016-05-17T13:21:53.458Z,8764
2016-05-17T13:22:53.569Z,9528
2016-05-17T13:23:53.588Z,10744
2016-05-17T13:24:53.636Z,12376
2016-05-17T13:25:53.703Z,13824
2016-05-17T13:26:53.596Z,13780
2016-05-17T13:27:53.770Z,12468
2016-05-17T13:28:53.882Z,11244
2016-05-17T13:29:53.729Z,10628
2016-05-17T13:30:53.606Z,10516
2016-05-17T13:31:53.921Z,10788